createdAt,value
2018-10-17T00:00:12.074Z,58.22
2018-10-17T00:01:12.113Z,58.02
2018-10-17T00:02:12.009Z,58.98
2018-10-17T00:03:11.974Z,58.98
2018-10-17T00:04:11.933Z,58.22
2018-10-17T00:05:11.938Z,57.92
2018-10-17T00:06:11.860Z,57.73
2018-10-17T00:07:11.886Z,57.45
2018-10-17T00:08:11.797Z,57.26
2018-10-17T00:09:11.753Z,57.45
2018-10-17T00:10:11.725Z,57.73
2018-10-17T00:11:11.752Z,57.73
2018-10-17T00:12:11.654Z,57.73
2018-10-17T00:13:11.652Z,57.45
2018-10-17T00:14:11.582Z,56.49
2018-10-17T00:15:11.548Z,56.30
2018-10-17T00:16:11.512Z,55.44
2018-10-17T00:17:11.512Z,54.28
2018-10-17T00:18:11.446Z,53.42
2018-10-17T00:19:11.495Z,54.19
2018-10-17T00:20:11.367Z,52.75
2018-10-17T00:21:11.333Z,53.62
2018-10-17T00:22:11.302Z,55.15
2018-10-17T00:23:11.361Z,55.91
2018-10-17T00:24:11.231Z,57.06
2018-10-17T00:25:11.227Z,57.35
2018-10-17T00:26:11.155Z,57.95
2018-10-17T00:27:11.126Z,59.55
2018-10-17T00:28:11.087Z,61.02
2018-10-17T00:29:11.085Z,61.98
2018-10-17T00:30:11.013Z,61.40
2018-10-17T00:31:11.087Z,62.46
2018-10-17T00:32:10.944Z,62.17
2018-10-17T00:33:10.906Z,61.98
2018-10-17T00:34:10.878Z,62.26
2018-10-17T00:35:10.906Z,61.60
2018-10-17T00:36:10.805Z,61.88
2018-10-17T00:37:10.843Z,61.69
2018-10-17T00:38:10.730Z,61.60
2018-10-17T00:39:10.697Z,61.88
2018-10-17T00:40:10.665Z,62.46
2018-10-17T00:41:10.720Z,63.22
2018-10-17T00:42:10.598Z,63.03
2018-10-17T00:43:10.630Z,62.93
2018-10-17T00:44:10.522Z,63.22
2018-10-17T00:45:10.483Z,63.22
2018-10-17T00:46:10.455Z,63.22
2018-10-17T00:47:10.457Z,63.51
2018-10-17T00:48:10.383Z,63.60
2018-10-17T00:49:10.377Z,63.13
2018-10-17T00:50:10.308Z,63.22
2018-10-17T00:51:10.275Z,63.89
2018-10-17T00:52:10.240Z,63.60
2018-10-17T00:53:10.262Z,63.80
2018-10-17T00:54:10.174Z,63.22
2018-10-17T00:55:10.161Z,64.37
2018-10-17T00:56:10.101Z,64.37
2018-10-17T00:57:10.066Z,63.60
2018-10-17T00:58:10.026Z,63.51
2018-10-17T00:59:10.029Z,63.51
2018-10-17T01:00:09.960Z,62.84
2018-10-17T01:01:09.990Z,61.60
2018-10-17T01:02:09.886Z,60.35
2018-10-17T01:03:09.853Z,60.83
2018-10-17T01:04:09.815Z,61.40
2018-10-17T01:05:09.871Z,61.02
2018-10-17T01:06:09.749Z,60.25
2018-10-17T01:07:09.783Z,60.16
2018-10-17T01:08:09.676Z,59.68
2018-10-17T01:09:09.644Z,59.77
2018-10-17T01:10:09.602Z,58.88
2018-10-17T01:11:09.629Z,59.11
2018-10-17T01:12:09.537Z,58.79
2018-10-17T01:13:09.513Z,58.12
2018-10-17T01:14:09.467Z,57.73
2018-10-17T01:15:09.431Z,57.45
2018-10-17T01:16:09.396Z,57.92
2018-10-17T01:17:09.454Z,56.77
2018-10-17T01:18:09.329Z,56.87
2018-10-17T01:19:09.352Z,55.63
2018-10-17T01:20:09.253Z,55.82
2018-10-17T01:21:09.219Z,54.57
2018-10-17T01:22:09.181Z,54.07
2018-10-17T01:23:09.187Z,52.73
2018-10-17T01:24:09.108Z,52.06
2018-10-17T01:25:09.178Z,50.91
2018-10-17T01:26:09.047Z,50.72
2018-10-17T01:27:09.005Z,49.38
2018-10-17T01:28:08.968Z,49.95
2018-10-17T01:29:08.989Z,50.05
2018-10-17T01:30:08.897Z,49.48
2018-10-17T01:31:08.936Z,49.95
2018-10-17T01:32:08.827Z,49.38
2018-10-17T01:33:08.794Z,48.61
2018-10-17T01:34:08.755Z,49.19
2018-10-17T01:35:08.786Z,48.61
2018-10-17T01:36:08.682Z,47.47
2018-10-17T01:37:08.708Z,46.70
2018-10-17T01:38:08.618Z,46.70
2018-10-17T01:39:08.578Z,46.03
2018-10-17T01:40:08.543Z,45.34
2018-10-17T01:41:08.546Z,44.48
2018-10-17T01:42:08.467Z,44.19
2018-10-17T01:43:08.456Z,43.71
2018-10-17T01:44:08.397Z,42.94
2018-10-17T01:45:08.361Z,42.27
2018-10-17T01:46:08.332Z,42.47
2018-10-17T01:47:08.395Z,42.08
2018-10-17T01:48:08.255Z,41.32
2018-10-17T01:49:08.293Z,40.55
2018-10-17T01:50:08.189Z,40.36
2018-10-17T01:51:08.151Z,39.03
2018-10-17T01:52:08.115Z,38.74
2018-10-17T01:53:08.157Z,37.88
2018-10-17T01:54:08.039Z,37.02
2018-10-17T01:55:08.043Z,36.54
2018-10-17T01:56:07.967Z,35.86
2018-10-17T01:57:07.933Z,36.92
2018-10-17T01:58:07.900Z,35.68
2018-10-17T01:59:07.921Z,35.77
2018-10-17T02:00:07.826Z,35.29
2018-10-17T02:01:07.838Z,35.10
2018-10-17T02:02:07.750Z,34.72
2018-10-17T02:03:07.716Z,35.00
2018-10-17T02:04:07.682Z,35.10
2018-10-17T02:05:07.723Z,35.20
2018-10-17T02:06:07.607Z,34.72
2018-10-17T02:07:07.601Z,33.07
2018-10-17T02:08:07.540Z,32.89
2018-10-17T02:09:07.501Z,32.70
2018-10-17T02:10:07.471Z,32.03
2018-10-17T02:11:07.492Z,31.64
2018-10-17T02:12:07.396Z,32.12
2018-10-17T02:13:07.382Z,31.35
2018-10-17T02:14:07.319Z,31.35
2018-10-17T02:15:07.286Z,31.16
2018-10-17T02:16:07.253Z,30.88
2018-10-17T02:17:07.285Z,30.40
2018-10-17T02:18:07.181Z,30.11
2018-10-17T02:19:07.215Z,31.16
2018-10-17T02:20:07.106Z,31.26
2018-10-17T02:21:07.070Z,30.88
2018-10-17T02:22:07.039Z,31.07
2018-10-17T02:23:15.745Z,31.07
2018-10-17T02:25:11.461Z,31.07
2018-10-17T02:26:11.343Z,31.55
2018-10-17T02:27:11.307Z,32.50
2018-10-17T02:28:11.272Z,32.41
2018-10-17T02:29:11.336Z,32.41
2018-10-17T02:30:11.197Z,32.31
2018-10-17T02:31:11.239Z,32.70
2018-10-17T02:32:11.127Z,32.89
2018-10-17T02:33:11.088Z,32.98
2018-10-17T02:34:11.058Z,33.17
2018-10-17T02:35:11.036Z,33.65
2018-10-17T02:36:10.988Z,33.84
2018-10-17T02:37:11.090Z,34.61
2018-10-17T02:38:10.908Z,36.06
2018-10-17T02:39:10.872Z,36.25
2018-10-17T02:40:10.836Z,36.73
2018-10-17T02:41:10.820Z,36.63
2018-10-17T02:42:10.769Z,37.78
2018-10-17T02:43:10.812Z,38.83
2018-10-17T02:44:10.691Z,39.89
2018-10-17T02:45:10.654Z,40.26
2018-10-17T02:46:10.628Z,39.60
2018-10-17T02:47:10.601Z,38.93
2018-10-17T02:48:10.552Z,39.60
2018-10-17T02:49:10.582Z,39.98
2018-10-17T02:50:10.475Z,39.98
2018-10-17T02:51:10.438Z,40.46
2018-10-17T02:52:10.402Z,41.51
2018-10-17T02:53:10.415Z,41.89
2018-10-17T02:54:10.336Z,42.18
2018-10-17T02:55:10.334Z,42.85
2018-10-17T02:56:10.261Z,42.47
2018-10-17T02:57:10.229Z,43.04
2018-10-17T02:58:10.185Z,43.14
2018-10-17T02:59:10.200Z,43.43
2018-10-17T03:00:10.117Z,44.00
2018-10-17T03:01:10.100Z,44.29
2018-10-17T03:02:10.040Z,44.48
2018-10-17T03:03:10.005Z,44.19
2018-10-17T03:04:09.970Z,43.80
2018-10-17T03:05:09.999Z,44.67
2018-10-17T03:06:09.904Z,45.05
2018-10-17T03:07:09.958Z,45.24
2018-10-17T03:08:09.827Z,45.53
2018-10-17T03:09:09.793Z,45.43
2018-10-17T03:10:09.751Z,45.43
2018-10-17T03:11:09.813Z,45.24
2018-10-17T03:12:09.680Z,44.86
2018-10-17T03:13:09.702Z,44.48
2018-10-17T03:14:09.612Z,44.48
2018-10-17T03:15:09.573Z,43.71
2018-10-17T03:16:09.535Z,43.52
2018-10-17T03:17:09.613Z,42.94
2018-10-17T03:18:09.469Z,42.76
2018-10-17T03:19:09.448Z,42.56
2018-10-17T03:20:09.397Z,42.08
2018-10-17T03:21:09.362Z,42.47
2018-10-17T03:22:09.318Z,42.27
2018-10-17T03:23:09.323Z,42.18
2018-10-17T03:24:09.247Z,42.47
2018-10-17T03:25:09.317Z,42.47
2018-10-17T03:26:09.178Z,42.18
2018-10-17T03:27:09.140Z,42.58
2018-10-17T03:28:09.110Z,43.63
2018-10-17T03:29:09.152Z,43.92
2018-10-17T03:30:09.027Z,44.69
2018-10-17T03:31:09.099Z,45.17
2018-10-17T03:32:08.973Z,44.31
2018-10-17T03:33:08.925Z,45.17
2018-10-17T03:34:08.883Z,45.55
2018-10-17T03:35:08.913Z,46.70
2018-10-17T03:36:08.814Z,46.12
2018-10-17T03:37:08.840Z,45.45
2018-10-17T03:38:08.745Z,44.50
2018-10-17T03:39:08.707Z,44.12
2018-10-17T03:40:08.674Z,45.36
2018-10-17T03:41:08.650Z,44.88
2018-10-17T03:42:08.595Z,44.88
2018-10-17T03:43:08.647Z,45.36
2018-10-17T03:44:08.525Z,45.65
2018-10-17T03:45:08.487Z,46.03
2018-10-17T03:46:08.460Z,45.94
2018-10-17T03:47:08.452Z,46.41
2018-10-17T03:48:08.382Z,45.84
2018-10-17T03:49:08.441Z,45.55
2018-10-17T03:50:08.314Z,45.55
2018-10-17T03:51:08.276Z,45.17
2018-10-17T03:52:08.240Z,45.74
2018-10-17T03:53:08.297Z,45.55
2018-10-17T04:07:09.126Z,44.69
2018-10-17T04:08:01.351Z,44.31
2018-10-17T04:09:01.314Z,43.52
2018-10-17T04:10:01.293Z,43.14
2018-10-17T04:11:01.292Z,42.77
2018-10-17T04:12:01.184Z,43.06
2018-10-17T04:13:01.149Z,44.02
2018-10-17T04:14:01.107Z,42.40
2018-10-17T04:15:01.066Z,44.02
2018-10-17T10:21:26.519Z,77.61
2018-10-17T10:22:26.346Z,77.13
2018-10-17T10:23:26.320Z,77.23
2018-10-17T10:24:26.271Z,78.00
2018-10-17T10:25:26.431Z,77.13
2018-10-17T10:26:26.192Z,78.09
2018-10-17T10:27:26.157Z,77.51
2018-10-17T10:28:26.237Z,78.06
2018-10-17T10:29:26.082Z,78.19
2018-10-17T10:30:26.075Z,77.71
2018-10-17T10:31:26.016Z,76.36
2018-10-17T10:32:25.977Z,71.08
2018-10-17T10:33:25.947Z,69.92
2018-10-17T10:34:25.912Z,68.57
2018-10-17T10:35:25.877Z,67.71
2018-10-17T10:36:25.846Z,68.99
2018-10-17T10:37:25.802Z,70.88
2018-10-17T10:38:25.771Z,70.68
2018-10-17T10:39:25.736Z,71.30
2018-10-17T10:40:25.714Z,71.11
2018-10-17T10:41:25.679Z,71.65
2018-10-17T10:42:25.637Z,70.98
2018-10-17T10:43:25.600Z,71.78
2018-10-17T10:44:25.569Z,68.80
2018-10-17T10:45:25.541Z,70.05
2018-10-17T10:46:25.502Z,71.59
2018-10-17T10:47:25.471Z,70.82
2018-10-17T10:48:25.439Z,71.59
2018-10-17T10:49:25.396Z,69.67
2018-10-17T10:50:25.373Z,69.95
2018-10-17T10:51:25.366Z,70.34
2018-10-17T10:52:25.297Z,71.59
2018-10-17T10:53:25.271Z,71.49
2018-10-17T10:54:25.239Z,73.13
2018-10-17T10:55:25.207Z,74.57
2018-10-17T10:56:25.175Z,74.57
2018-10-17T10:57:25.310Z,74.48
2018-10-17T10:58:25.385Z,74.38
2018-10-17T10:59:25.292Z,73.51
2018-10-17T11:00:25.045Z,73.71
2018-10-17T11:01:25.001Z,73.80
2018-10-17T11:02:24.972Z,73.32
2018-10-17T11:03:24.937Z,75.63
2018-10-17T11:04:24.921Z,73.99
2018-10-17T11:05:24.989Z,75.24
2018-10-17T11:06:24.845Z,74.96
2018-10-17T11:07:24.810Z,74.48
2018-10-17T11:08:24.778Z,73.71
2018-10-17T11:09:24.739Z,73.61
2018-10-17T11:10:24.726Z,74.76
2018-10-17T11:11:24.675Z,76.63
2018-10-17T11:12:24.641Z,77.50
2018-10-17T11:13:24.615Z,76.63
2018-10-17T11:14:24.605Z,78.46
2018-10-17T11:15:24.553Z,76.63
2018-10-17T11:16:24.508Z,77.31
2018-10-17T11:17:24.482Z,76.92
2018-10-17T11:18:24.452Z,77.21
2018-10-17T11:19:24.462Z,77.11
2018-10-17T11:20:24.556Z,77.69
2018-10-17T11:21:24.350Z,77.69
2018-10-17T11:22:24.319Z,78.17
2018-10-17T11:23:24.286Z,78.56
2018-10-17T11:24:24.253Z,77.11
2018-10-17T11:25:24.644Z,77.11
2018-10-17T11:26:24.190Z,77.78
2018-10-17T11:27:24.301Z,80.10
2018-10-17T11:41:47.757Z,80.77
2018-10-17T11:42:38.182Z,83.75
2018-10-17T11:43:36.862Z,83.70
2018-10-17T11:44:37.457Z,83.12
2018-10-17T11:45:36.656Z,83.89
2018-10-17T11:46:36.622Z,82.54
2018-10-17T11:47:36.643Z,82.54
2018-10-17T11:48:36.552Z,83.89
2018-10-17T11:49:36.516Z,83.03
2018-10-17T11:50:36.562Z,83.80
2018-10-17T11:51:36.457Z,83.31
2018-10-17T11:52:36.429Z,83.22
2018-10-17T11:53:36.390Z,83.03
2018-10-17T11:54:36.359Z,82.74
2018-10-17T11:55:36.329Z,84.03
2018-10-17T11:56:36.298Z,83.89
2018-10-17T11:57:36.266Z,83.80
2018-10-17T11:58:36.236Z,83.31
2018-10-17T11:59:36.271Z,83.70
2018-10-17T12:00:36.170Z,83.12
2018-10-17T12:01:36.135Z,83.89
2018-10-17T12:02:36.106Z,83.89
2018-10-17T12:03:36.174Z,83.80
2018-10-17T12:04:36.249Z,84.28
2018-10-17T12:05:36.310Z,84.18
2018-10-17T12:06:36.051Z,83.51
2018-10-17T12:07:35.953Z,83.41
2018-10-17T12:08:35.919Z,83.12
2018-10-17T12:09:35.928Z,83.70
2018-10-17T12:10:35.875Z,83.22
2018-10-17T12:11:35.877Z,82.83
2018-10-17T12:12:35.785Z,83.45
2018-10-17T12:13:35.755Z,83.26
2018-10-17T12:14:35.748Z,82.20
2018-10-17T12:15:35.691Z,82.87
2018-10-17T12:16:35.663Z,82.29
2018-10-17T12:17:35.633Z,83.16
2018-10-17T12:18:35.595Z,82.87
2018-10-17T12:19:35.575Z,83.07
2018-10-17T12:20:35.527Z,82.39
2018-10-17T12:21:35.557Z,82.29
2018-10-17T12:22:35.466Z,82.49
2018-10-17T12:23:35.436Z,82.10
2018-10-17T12:24:35.405Z,82.29
2018-10-17T12:25:35.368Z,82.29
2018-10-17T12:26:35.338Z,81.72
2018-10-17T12:27:35.365Z,81.91
2018-10-17T12:28:35.391Z,82.10
2018-10-17T12:29:35.247Z,81.81
2018-10-17T12:30:35.213Z,82.01
2018-10-17T12:31:35.181Z,81.91
2018-10-17T12:32:35.148Z,81.33
2018-10-17T12:33:35.113Z,81.24
2018-10-17T12:34:35.084Z,81.14
2018-10-17T12:35:35.056Z,81.14
2018-10-17T12:36:35.026Z,81.04
2018-10-17T12:37:34.993Z,81.04
2018-10-17T12:38:34.966Z,81.24
2018-10-17T12:39:34.940Z,81.14
2018-10-17T12:40:34.985Z,81.33
2018-10-17T12:41:34.960Z,80.66
2018-10-17T12:42:34.838Z,81.14
2018-10-17T12:43:34.800Z,80.37
2018-10-17T12:44:34.765Z,80.66
2018-10-17T12:45:34.791Z,80.37
2018-10-17T12:46:34.705Z,80.56
2018-10-17T12:47:34.674Z,79.89
2018-10-17T12:48:34.647Z,80.27
2018-10-17T12:49:34.636Z,81.27
2018-10-17T12:50:34.579Z,80.51
2018-10-17T12:51:34.547Z,79.93
2018-10-17T12:52:34.571Z,79.83
2018-10-17T12:53:34.496Z,80.02
2018-10-17T12:54:34.454Z,79.44
2018-10-17T12:55:34.424Z,79.93
2018-10-17T12:56:34.393Z,79.83
2018-10-17T12:57:34.359Z,79.93
2018-10-17T12:58:34.327Z,79.44
2018-10-17T12:59:34.300Z,79.25
2018-10-17T13:00:34.273Z,79.54
2018-10-17T13:01:34.242Z,79.35
2018-10-17T13:02:34.205Z,79.25
2018-10-17T13:03:34.170Z,80.02
2018-10-17T13:04:34.138Z,79.16
2018-10-17T13:05:34.107Z,79.25
2018-10-17T13:06:34.074Z,79.16
2018-10-17T13:07:34.051Z,78.58
2018-10-17T13:08:34.021Z,78.77
2018-10-17T13:09:34.013Z,78.58
2018-10-17T13:10:33.954Z,78.86
2018-10-17T13:11:34.029Z,79.06
2018-10-17T13:12:33.891Z,78.77
2018-10-17T13:13:33.857Z,78.48
2018-10-17T13:14:33.831Z,78.58
2018-10-17T13:15:33.798Z,78.86
2018-10-17T13:16:33.767Z,78.09
2018-10-17T13:17:33.735Z,77.90
2018-10-17T13:18:33.951Z,78.19
2018-10-17T13:19:33.676Z,78.38
2018-10-17T13:20:33.707Z,78.38
2018-10-17T13:21:33.608Z,78.48
2018-10-17T13:22:33.646Z,77.81
2018-10-17T13:23:33.543Z,77.81
2018-10-17T13:24:33.590Z,77.23
2018-10-17T13:25:33.512Z,77.13
2018-10-17T13:26:33.670Z,77.81
2018-10-17T13:27:33.437Z,77.42
2018-10-17T13:28:33.390Z,78.00
2018-10-17T13:29:33.375Z,78.48
2018-10-17T13:30:33.324Z,78.00
2018-10-17T13:31:33.300Z,77.90
2018-10-17T13:32:33.378Z,78.23
2018-10-17T13:33:33.271Z,78.23
2018-10-17T13:34:33.593Z,77.36
2018-10-17T13:35:33.375Z,78.03
2018-10-17T13:36:33.325Z,77.17
2018-10-17T13:37:33.402Z,77.03
2018-10-17T13:38:33.075Z,76.84
2018-10-17T13:39:33.248Z,76.65
2018-10-17T13:40:33.091Z,76.45
2018-10-17T13:41:33.112Z,76.75
2018-10-17T13:42:32.964Z,77.03
2018-10-17T13:43:32.934Z,76.45
2018-10-17T13:44:33.051Z,77.03
2018-10-17T13:45:32.854Z,76.84
2018-10-17T13:46:32.826Z,77.23
2018-10-17T13:47:32.789Z,76.55
2018-10-17T13:48:32.826Z,77.51
2018-10-17T13:49:32.837Z,77.13
2018-10-17T13:50:32.996Z,77.81
2018-10-17T13:51:34.324Z,76.93
2018-10-17T13:52:32.646Z,76.65
2018-10-17T13:53:32.802Z,77.81
2018-10-17T13:54:33.177Z,77.81
2018-10-17T13:55:32.733Z,77.51
2018-10-17T13:56:32.511Z,77.42
2018-10-17T13:57:32.483Z,78.48
2018-10-17T13:58:32.445Z,77.13
2018-10-17T13:59:32.430Z,77.23
2018-10-17T14:00:32.389Z,76.93
2018-10-17T14:01:32.355Z,76.65
2018-10-17T14:02:32.323Z,76.65
2018-10-17T14:03:32.293Z,77.51
2018-10-17T14:04:32.263Z,77.03
2018-10-17T14:05:32.232Z,77.23
2018-10-17T14:06:32.201Z,77.13
2018-10-17T14:07:32.164Z,77.03
2018-10-17T14:08:32.135Z,77.23
2018-10-17T14:09:32.101Z,77.61
2018-10-17T14:10:32.073Z,77.23
2018-10-17T14:11:32.124Z,77.00
2018-10-17T14:12:32.017Z,76.93
2018-10-17T14:13:32.080Z,77.23
2018-10-17T14:14:31.949Z,77.13
2018-10-17T14:15:31.915Z,76.65
2018-10-17T14:16:31.881Z,76.93
2018-10-17T14:17:31.858Z,77.03
2018-10-17T14:18:31.823Z,76.90
2018-10-17T14:19:31.789Z,76.90
2018-10-17T14:20:31.769Z,76.61
2018-10-17T14:21:31.726Z,76.61
2018-10-17T14:22:31.699Z,77.09
2018-10-17T14:23:31.751Z,77.09
2018-10-17T14:24:31.635Z,77.00
2018-10-17T14:25:31.619Z,77.19
2018-10-17T14:26:31.575Z,77.19
2018-10-17T14:27:31.535Z,77.00
2018-10-17T14:28:31.568Z,77.48
2018-10-17T14:29:31.541Z,77.76
2018-10-17T14:30:31.442Z,77.19
2018-10-17T14:31:31.418Z,77.38
2018-10-17T14:32:31.381Z,77.48
2018-10-17T14:33:31.350Z,77.86
2018-10-17T14:34:31.318Z,77.28
2018-10-17T14:35:31.296Z,77.67
2018-10-17T14:36:31.254Z,77.96
2018-10-17T14:37:31.337Z,77.38
2018-10-17T14:38:31.219Z,77.96
2018-10-17T14:39:31.274Z,77.96
2018-10-17T14:40:31.163Z,77.96
2018-10-17T14:41:31.100Z,78.15
2018-10-17T14:42:31.068Z,78.15
2018-10-17T14:43:31.086Z,78.06
2018-10-17T14:44:31.001Z,78.54
2018-10-17T14:45:30.970Z,77.38
2018-10-17T14:46:30.944Z,77.67
2018-10-17T14:47:30.904Z,78.54
2018-10-17T14:48:30.879Z,78.25
2018-10-17T14:49:30.845Z,77.76
2018-10-17T14:50:30.814Z,78.25
2018-10-17T14:51:30.782Z,77.96
2018-10-17T14:52:30.748Z,77.96
2018-10-17T14:53:30.714Z,78.54
2018-10-17T14:54:30.683Z,78.06
2018-10-17T14:55:30.678Z,78.15
2018-10-17T14:56:30.625Z,79.02
2018-10-17T14:57:30.594Z,77.48
2018-10-17T14:58:30.563Z,78.34
2018-10-17T14:59:30.523Z,77.92
2018-10-17T15:00:30.496Z,78.25
2018-10-17T15:01:30.464Z,78.40
2018-10-17T15:02:30.430Z,78.54
2018-10-17T15:03:30.404Z,77.96
2018-10-17T15:04:30.370Z,78.44
2018-10-17T15:05:30.339Z,78.50
2018-10-17T15:06:30.301Z,78.59
2018-10-17T15:07:30.280Z,78.40
2018-10-17T15:08:30.242Z,78.59
2018-10-17T15:09:30.209Z,78.59
2018-10-17T15:10:30.303Z,78.21
2018-10-17T15:11:30.222Z,78.59
2018-10-17T15:12:30.290Z,78.40
2018-10-17T15:13:30.081Z,78.59
2018-10-17T15:14:30.055Z,79.17
2018-10-17T15:15:30.023Z,78.59
2018-10-17T15:16:30.010Z,79.17
2018-10-17T15:17:29.959Z,78.98
2018-10-17T15:18:29.926Z,79.94
2018-10-17T15:19:29.893Z,78.98
2018-10-17T15:20:29.863Z,78.88
2018-10-17T15:21:29.830Z,80.14
2018-10-17T15:22:29.801Z,79.43
2018-10-17T15:23:29.762Z,79.56
2018-10-17T15:24:29.752Z,79.33
2018-10-17T15:25:29.706Z,79.27
2018-10-17T15:26:29.665Z,79.61
2018-10-17T15:27:29.644Z,80.10
2018-10-17T15:28:29.624Z,79.94
2018-10-17T15:29:29.574Z,79.94
2018-10-17T15:30:29.549Z,79.75
2018-10-17T15:31:29.603Z,79.90
2018-10-17T15:32:29.499Z,80.04
2018-10-17T15:33:29.450Z,79.56
2018-10-17T15:34:29.409Z,79.43
2018-10-17T15:35:29.384Z,79.90
2018-10-17T15:36:29.348Z,79.71
2018-10-17T15:37:29.356Z,80.00
2018-10-17T15:38:29.280Z,79.90
2018-10-17T15:39:29.263Z,79.71
2018-10-17T15:40:29.219Z,80.68
2018-10-17T15:41:29.187Z,80.10
2018-10-17T15:42:29.157Z,80.19
2018-10-17T15:43:29.128Z,80.38
2018-10-17T15:44:29.089Z,80.58
2018-10-17T15:45:29.057Z,80.87
2018-10-17T15:46:29.023Z,80.48
2018-10-17T15:47:28.997Z,80.87
2018-10-17T15:48:28.962Z,80.35
2018-10-17T15:49:28.931Z,80.35
2018-10-17T15:50:28.900Z,80.25
2018-10-17T15:51:28.862Z,80.63
2018-10-17T15:52:28.832Z,80.54
2018-10-17T16:05:13.188Z,80.15
2018-10-17T16:06:12.729Z,80.44
2018-10-17T16:07:12.664Z,79.96
2018-10-17T16:08:12.685Z,79.48
2018-10-17T16:09:12.594Z,79.05
2018-10-17T16:10:12.558Z,78.58
2018-10-17T16:11:12.521Z,78.48
2018-10-17T16:12:12.570Z,78.67
2018-10-17T16:13:12.453Z,78.00
2018-10-17T16:14:12.521Z,77.04
2018-10-17T16:15:12.387Z,77.13
2018-10-17T16:16:12.355Z,75.98
2018-10-17T16:17:12.385Z,75.31
2018-10-17T16:18:12.376Z,75.31
2018-10-17T16:19:12.251Z,75.21
2018-10-17T16:20:12.285Z,74.69
2018-10-17T16:21:12.181Z,74.30
2018-10-17T16:22:12.148Z,74.11
2018-10-17T16:23:12.155Z,73.44
2018-10-17T16:24:12.162Z,73.06
2018-10-17T16:25:12.050Z,73.35
2018-10-17T16:26:12.073Z,73.25
2018-10-17T16:27:11.982Z,73.15
2018-10-17T16:28:12.016Z,72.96
2018-10-17T16:29:11.921Z,72.77
2018-10-17T16:30:11.914Z,71.52
2018-10-17T16:31:11.929Z,71.81
2018-10-17T16:32:11.866Z,71.14
2018-10-17T16:33:11.784Z,70.81
2018-10-17T16:34:11.751Z,70.46
2018-10-17T16:35:11.717Z,69.56
2018-10-17T16:36:11.726Z,69.85
2018-10-17T16:37:11.654Z,69.85
2018-10-17T16:38:11.692Z,68.98
2018-10-17T16:39:11.588Z,68.79
2018-10-17T16:40:11.549Z,68.31
2018-10-17T16:41:11.588Z,68.21
2018-10-17T16:42:11.567Z,68.79
2018-10-17T16:43:11.451Z,68.12
2018-10-17T16:44:11.462Z,68.76
2018-10-17T16:45:11.383Z,68.02
2018-10-17T16:46:11.355Z,68.51
2018-10-17T16:47:11.326Z,67.64
2018-10-17T16:48:11.357Z,68.02
2018-10-17T16:49:11.257Z,67.83
2018-10-17T16:50:11.324Z,67.99
2018-10-17T16:51:11.187Z,67.03
2018-10-17T16:52:11.150Z,65.78
2018-10-17T16:53:11.118Z,65.01
2018-10-17T16:54:11.159Z,64.63
2018-10-17T16:55:11.113Z,65.20
2018-10-17T16:56:11.024Z,64.63
2018-10-17T16:57:11.055Z,64.15
2018-10-17T16:58:11.000Z,64.34
2018-10-17T16:59:10.928Z,64.43
2018-10-17T17:00:10.969Z,64.15
2018-10-17T17:01:10.860Z,63.57
2018-10-17T17:02:10.822Z,63.57
2018-10-17T17:03:10.818Z,62.52
2018-10-17T17:04:10.801Z,62.04
2018-10-17T17:05:10.771Z,60.98
2018-10-17T17:06:10.722Z,58.48
2018-10-17T17:07:10.655Z,55.67
2018-10-17T17:08:10.630Z,55.77
2018-10-17T17:09:10.641Z,54.42
2018-10-17T17:10:10.561Z,53.17
2018-10-17T17:11:10.519Z,51.64
2018-10-17T17:12:10.518Z,50.96
2018-10-17T17:13:10.458Z,49.24
2018-10-17T17:14:10.421Z,48.76
2018-10-17T17:15:10.487Z,47.32
2018-10-17T17:16:10.354Z,46.26
2018-10-17T17:17:10.316Z,44.82
2018-10-17T17:18:10.351Z,44.06
2018-10-17T17:19:10.252Z,42.43
2018-10-17T17:20:10.223Z,42.04
2018-10-17T17:21:10.270Z,40.99
2018-10-17T17:22:10.184Z,40.41
2018-10-17T17:23:10.116Z,39.35
2018-10-17T17:24:10.176Z,39.73
2018-10-17T17:25:10.048Z,39.26
2018-10-17T17:26:10.018Z,37.72
2018-10-17T17:27:09.990Z,38.68
2018-10-17T17:28:09.953Z,37.05
2018-10-17T17:29:09.913Z,37.24
2018-10-17T17:30:09.963Z,36.66
2018-10-17T17:31:09.852Z,36.95
2018-10-17T17:32:09.818Z,35.13
2018-10-17T17:33:09.870Z,35.61
2018-10-17T17:34:09.749Z,35.03
2018-10-17T17:35:09.712Z,34.94
2018-10-17T17:36:09.753Z,34.07
2018-10-17T17:37:09.648Z,33.98
2018-10-17T17:38:09.612Z,34.07
2018-10-17T17:39:09.582Z,33.98
2018-10-17T17:40:09.547Z,33.88
2018-10-17T17:41:09.513Z,33.40
2018-10-17T17:42:09.547Z,33.19
2018-10-17T17:43:09.442Z,33.58
2018-10-17T17:44:09.406Z,33.98
2018-10-17T17:45:09.380Z,33.29
2018-10-17T17:46:09.411Z,33.31
2018-10-17T17:47:09.306Z,32.71
2018-10-17T17:48:09.273Z,33.09
2018-10-17T17:49:09.237Z,32.71
2018-10-17T17:50:09.208Z,31.27
2018-10-17T17:51:09.172Z,31.27
2018-10-17T17:52:09.153Z,31.37
2018-10-17T17:53:09.107Z,31.37
2018-10-17T17:54:09.074Z,30.99
2018-10-17T17:55:09.035Z,31.37
2018-10-17T17:56:08.998Z,30.41
2018-10-17T17:57:08.965Z,30.51
2018-10-17T17:58:08.966Z,29.35
2018-10-17T17:59:08.900Z,29.83
2018-10-17T18:00:08.878Z,29.35
2018-10-17T18:01:08.831Z,28.49
2018-10-17T18:02:08.799Z,28.01
2018-10-17T18:03:08.770Z,27.25
2018-10-17T18:04:08.812Z,26.67
2018-10-17T18:05:08.699Z,26.76
2018-10-17T18:06:08.663Z,26.09
2018-10-17T18:07:08.626Z,26.48
2018-10-17T18:08:08.642Z,25.13
2018-10-17T18:09:08.560Z,25.04
2018-10-17T18:10:08.549Z,24.08
2018-10-17T18:11:08.492Z,23.69
2018-10-17T18:12:08.461Z,23.50
2018-10-17T18:13:08.427Z,22.74
2018-10-17T18:14:08.401Z,21.87
2018-10-17T18:15:08.353Z,20.81
2018-10-17T18:16:08.430Z,20.43
2018-10-17T18:17:08.289Z,21.11
2018-10-17T18:18:08.254Z,19.76
2018-10-17T18:19:08.217Z,19.38
2018-10-17T18:20:08.183Z,18.42
2018-10-17T18:21:08.149Z,17.65
2018-10-17T18:22:08.191Z,17.17
2018-10-17T18:23:08.084Z,18.04
2018-10-17T18:24:08.051Z,17.65
2018-10-17T18:25:08.018Z,18.04
2018-10-17T18:26:07.987Z,16.69
2018-10-17T18:27:07.945Z,16.98
2018-10-17T18:28:07.927Z,16.21
2018-10-17T18:29:07.873Z,14.97
2018-10-17T18:30:07.842Z,13.91
2018-10-17T18:31:07.811Z,14.00
2018-10-17T18:32:07.777Z,13.91
2018-10-17T18:33:07.737Z,12.28
2018-10-17T18:34:07.738Z,12.08
2018-10-17T18:35:07.677Z,12.57
2018-10-17T18:36:07.659Z,11.90
2018-10-17T18:37:07.608Z,11.60
2018-10-17T18:38:07.570Z,10.55
2018-10-17T18:39:07.537Z,10.84
2018-10-17T18:40:07.557Z,11.03
2018-10-17T18:41:07.464Z,11.03
2018-10-17T18:42:07.432Z,10.84
2018-10-17T18:43:07.399Z,10.35
2018-10-17T18:44:07.371Z,9.78
2018-10-17T18:45:07.332Z,9.59
2018-10-17T18:46:07.297Z,9.39
2018-10-17T18:47:07.280Z,9.50
2018-10-17T18:48:07.226Z,9.59
2018-10-17T18:49:07.195Z,8.82
2018-10-17T18:50:07.189Z,8.72
2018-10-17T18:51:07.142Z,8.34
2018-10-17T18:52:07.087Z,8.92
2018-10-17T18:53:07.054Z,9.39
2018-10-17T18:54:07.021Z,9.50
2018-10-17T18:55:06.987Z,9.39
2018-10-17T18:56:06.965Z,9.59
2018-10-17T18:57:06.994Z,9.59
2018-10-17T18:58:06.885Z,9.59
2018-10-17T18:59:06.847Z,8.83
2018-10-17T19:00:06.874Z,8.92
2018-10-17T19:01:06.782Z,8.92
2018-10-17T19:02:06.747Z,9.30
2018-10-17T19:03:06.747Z,9.20
2018-10-17T19:04:06.681Z,9.01
2018-10-17T19:05:06.642Z,9.30
2018-10-17T19:06:06.609Z,9.49
2018-10-17T19:07:06.575Z,8.63
2018-10-17T19:08:06.576Z,8.73
2018-10-17T19:47:02.415Z,0.00
2018-10-17T19:48:01.971Z,0.00
2018-10-17T19:49:01.923Z,0.00
2018-10-17T19:50:01.888Z,0.00
2018-10-17T19:51:01.867Z,0.00
2018-10-17T19:52:01.819Z,0.00
2018-10-17T19:53:01.779Z,0.00
2018-10-17T19:54:01.742Z,0.00
2018-10-17T19:55:01.709Z,0.00
2018-10-17T19:56:01.764Z,0.00
2018-10-17T19:57:01.679Z,0.00
2018-10-17T19:58:01.607Z,0.00
2018-10-17T19:59:01.565Z,0.00
2018-10-17T20:00:01.532Z,0.00
2018-10-17T20:01:01.508Z,0.00
2018-10-17T20:02:01.469Z,0.00
2018-10-17T20:03:01.461Z,0.00
2018-10-17T20:04:01.393Z,0.00
2018-10-17T20:05:01.358Z,0.00
2018-10-17T20:06:01.320Z,0.00
2018-10-17T20:07:01.968Z,0.00
2018-10-17T20:08:01.252Z,0.00
2018-10-17T20:09:01.256Z,0.00
2018-10-17T20:10:01.208Z,0.00
2018-10-17T20:11:01.151Z,0.00
2018-10-17T20:12:01.116Z,0.00
2018-10-17T20:13:01.077Z,0.00
2018-10-17T20:14:01.090Z,0.00
2018-10-17T20:15:01.025Z,0.00
2018-10-17T20:16:00.974Z,0.00